To NAV CANADA Home Page Login to a new session Search on AWWS site Disclaimer Vers la page française équivalente Tips FAQ What's new on the site To the Forecasts and Observations / NOTAM section To "File a Flight Plan" website Publications and other links Update of the User's profile FIC Telephone Numbers My Weather Data Folder Route Weather Data Regional Weather Data Local Weather Data To the Forecasts and Observations / NOTAM section
Request Generated 02/17/2019 at 01:25:39 UTC . Weather information available at that time is displayed.

METAR/TAF

CHATHAM-KENT/ON    (show WxCam)

METAR CYCK 170100Z AUTO 06008KT 9SM OVC021 M04/M08 A3010 RMK SLP206=
METAR CYCK 170000Z AUTO 02010KT 9SM OVC021 M04/M07 A3009 RMK SLP202=
METAR CYCK 162300Z AUTO 03009G15KT 9SM OVC021 M04/M08 A3008 RMK SLP198=

CYCK - No TAF is issued for this station

Your time UTC time
Weather data provided by Environment Canada and NAV CANADA